createdAt,value
2022-08-28T00:00:37.961Z,88.80
2022-08-28T00:03:06.222Z,88.50
2022-08-28T00:05:34.017Z,88.20
2022-08-28T00:08:01.423Z,88.60
2022-08-28T00:10:31.506Z,89.00
2022-08-28T00:12:58.983Z,90.00
2022-08-28T00:15:32.917Z,89.40
2022-08-28T00:18:01.015Z,89.10
2022-08-28T00:20:28.750Z,89.50
2022-08-28T00:22:55.827Z,89.90
2022-08-28T00:25:25.794Z,90.00
2022-08-28T00:27:55.220Z,89.50
2022-08-28T00:30:29.990Z,89.80
2022-08-28T00:33:00.279Z,90.00
2022-08-28T00:35:27.627Z,90.20
2022-08-28T00:37:55.247Z,90.20
2022-08-28T00:40:28.743Z,90.20
2022-08-28T00:43:00.502Z,90.60
2022-08-28T00:45:27.964Z,90.40
2022-08-28T00:47:54.968Z,90.50
2022-08-28T00:50:24.745Z,90.50
2022-08-28T00:53:00.049Z,90.60
2022-08-28T00:55:28.470Z,90.70
2022-08-28T00:58:00.515Z,90.90
2022-08-28T01:00:34.982Z,90.80
2022-08-28T01:03:03.921Z,91.00
2022-08-28T01:05:31.229Z,91.10
2022-08-28T01:07:59.229Z,91.20
2022-08-28T01:10:29.303Z,91.10
2022-08-28T01:12:57.525Z,91.10
2022-08-28T01:15:37.195Z,91.30
2022-08-28T01:18:08.725Z,91.40
2022-08-28T01:20:40.913Z,91.30
2022-08-28T01:23:34.176Z,91.50
2022-08-28T01:26:01.032Z,91.50
2022-08-28T01:28:28.361Z,91.90
2022-08-28T01:30:55.342Z,91.50
2022-08-28T01:33:27.803Z,91.60
2022-08-28T01:35:55.214Z,91.70
2022-08-28T01:38:26.906Z,91.80
2022-08-28T01:40:54.930Z,91.80
2022-08-28T01:43:24.074Z,91.90
2022-08-28T01:45:54.212Z,91.80
2022-08-28T01:48:23.889Z,92.00
2022-08-28T01:50:50.885Z,91.90
2022-08-28T01:53:24.734Z,92.40
2022-08-28T01:55:53.133Z,92.20
2022-08-28T01:58:21.056Z,92.10
2022-08-28T02:00:48.174Z,92.30
2022-08-28T02:03:15.088Z,92.20
2022-08-28T02:05:43.636Z,92.30
2022-08-28T02:08:10.742Z,92.20
2022-08-28T02:10:39.060Z,92.20
2022-08-28T02:13:07.325Z,92.30
2022-08-28T02:15:35.723Z,92.20
2022-08-28T02:18:03.545Z,92.20
2022-08-28T02:20:31.268Z,92.30
2022-08-28T02:22:58.516Z,92.50
2022-08-28T02:25:27.255Z,92.40
2022-08-28T02:27:54.919Z,92.50
2022-08-28T02:30:22.022Z,93.00
2022-08-28T02:32:50.103Z,92.60
2022-08-28T02:35:19.147Z,92.80
2022-08-28T02:37:47.651Z,92.70
2022-08-28T02:40:17.634Z,92.70
2022-08-28T02:42:45.310Z,92.70
2022-08-28T02:45:14.055Z,92.90
2022-08-28T02:47:42.940Z,92.80
2022-08-28T02:50:13.182Z,92.90
2022-08-28T02:52:41.427Z,92.80
2022-08-28T02:55:09.769Z,93.20
2022-08-28T02:57:36.805Z,93.00
2022-08-28T03:00:11.341Z,92.90
2022-08-28T03:02:39.227Z,93.10
2022-08-28T03:05:06.418Z,93.20
2022-08-28T03:07:33.269Z,93.10
2022-08-28T03:10:00.320Z,93.20
2022-08-28T03:12:27.384Z,93.30
2022-08-28T03:14:55.085Z,93.40
2022-08-28T03:17:22.287Z,93.40
2022-08-28T03:19:52.829Z,93.20
2022-08-28T03:22:39.636Z,93.30
2022-08-28T03:25:07.316Z,93.20
2022-08-28T03:27:34.222Z,93.30
2022-08-28T03:30:02.882Z,93.30
2022-08-28T03:32:31.826Z,93.30
2022-08-28T03:34:58.865Z,93.30
2022-08-28T03:37:25.953Z,93.40
2022-08-28T03:39:53.071Z,93.50
2022-08-28T03:42:19.927Z,93.50
2022-08-28T03:44:47.769Z,93.60
2022-08-28T03:47:14.853Z,93.60
2022-08-28T03:49:42.600Z,93.70
2022-08-28T03:52:09.462Z,93.70
2022-08-28T03:54:36.606Z,93.90
2022-08-28T03:57:03.580Z,93.90
2022-08-28T03:59:32.596Z,93.90
2022-08-28T04:02:00.633Z,94.10
2022-08-28T04:04:27.949Z,93.90
2022-08-28T04:06:54.815Z,94.10
2022-08-28T04:09:21.738Z,94.20
2022-08-28T04:11:48.907Z,94.00
2022-08-28T04:14:15.820Z,94.00
2022-08-28T04:16:42.778Z,94.10
2022-08-28T04:19:09.839Z,94.10
2022-08-28T04:21:36.960Z,94.30
2022-08-28T04:24:07.814Z,94.10
2022-08-28T04:26:36.935Z,94.20
2022-08-28T04:29:04.832Z,94.30
2022-08-28T04:31:32.917Z,94.20
2022-08-28T04:34:05.504Z,94.40
2022-08-28T04:36:33.875Z,94.30
2022-08-28T04:39:02.202Z,94.80
2022-08-28T04:41:30.536Z,94.70
2022-08-28T04:43:58.282Z,94.50
2022-08-28T04:46:25.472Z,94.60
2022-08-28T04:48:52.361Z,94.60
2022-08-28T04:51:20.435Z,94.70
2022-08-28T04:53:47.330Z,94.60
2022-08-28T04:56:15.486Z,94.70
2022-08-28T04:58:44.403Z,94.80
2022-08-28T05:01:15.802Z,94.70
2022-08-28T05:03:42.781Z,94.80
2022-08-28T05:06:09.760Z,94.80
2022-08-28T05:08:36.644Z,94.90
2022-08-28T05:11:33.277Z,94.90
2022-08-28T05:14:12.643Z,95.00
2022-08-28T05:16:47.898Z,95.00
2022-08-28T05:19:16.368Z,95.00
2022-08-28T05:21:44.147Z,95.10
2022-08-28T05:24:11.817Z,95.10
2022-08-28T05:26:40.259Z,95.40
2022-08-28T05:29:08.132Z,95.30
2022-08-28T05:31:35.633Z,95.30
2022-08-28T05:34:02.956Z,95.20
2022-08-28T05:36:33.799Z,95.20
2022-08-28T05:39:02.182Z,95.50
2022-08-28T05:41:30.859Z,95.50
2022-08-28T05:44:02.853Z,95.40
2022-08-28T05:46:30.084Z,95.40
2022-08-28T05:48:57.810Z,95.60
2022-08-28T05:51:26.747Z,95.70
2022-08-28T05:53:54.691Z,95.60
2022-08-28T05:56:25.367Z,95.80
2022-08-28T05:58:52.279Z,96.00
2022-08-28T06:01:23.808Z,95.90
2022-08-28T06:03:57.028Z,95.90
2022-08-28T06:06:25.729Z,95.90
2022-08-28T06:08:59.611Z,95.80
2022-08-28T06:11:30.382Z,95.90
2022-08-28T06:14:02.746Z,96.20
2022-08-28T06:16:32.022Z,96.10
2022-08-28T06:19:00.629Z,95.80
2022-08-28T06:21:28.369Z,95.80
2022-08-28T06:23:56.168Z,95.80
2022-08-28T06:26:23.465Z,96.00
2022-08-28T06:28:50.338Z,96.10
2022-08-28T06:31:24.696Z,96.30
2022-08-28T06:33:54.244Z,96.10
2022-08-28T06:36:21.850Z,96.00
2022-08-28T06:38:49.095Z,96.10
2022-08-28T06:41:16.152Z,96.10
2022-08-28T06:43:43.178Z,96.20
2022-08-28T06:46:10.195Z,96.30
2022-08-28T06:48:37.261Z,96.00
2022-08-28T06:51:07.824Z,96.00
2022-08-28T06:53:34.693Z,96.20
2022-08-28T06:56:02.990Z,96.10
2022-08-28T06:58:30.442Z,96.20
2022-08-28T07:01:03.129Z,95.90
2022-08-28T07:03:33.369Z,95.90
2022-08-28T07:06:01.501Z,95.90
2022-08-28T07:08:29.259Z,96.10
2022-08-28T07:10:56.517Z,95.80
2022-08-28T07:13:23.753Z,95.90
2022-08-28T07:15:50.997Z,95.90
2022-08-28T07:18:18.806Z,96.10
2022-08-28T07:20:45.869Z,95.80
2022-08-28T07:23:12.776Z,95.90
2022-08-28T07:25:41.576Z,95.70
2022-08-28T07:28:08.969Z,95.70
2022-08-28T07:30:35.875Z,95.70
2022-08-28T07:33:02.791Z,95.60
2022-08-28T07:35:29.628Z,95.70
2022-08-28T07:37:57.512Z,95.60
2022-08-28T07:40:24.573Z,95.60
2022-08-28T07:43:09.820Z,95.60
2022-08-28T07:45:36.748Z,95.50
2022-08-28T07:48:11.872Z,95.40
2022-08-28T07:50:38.835Z,95.20
2022-08-28T07:53:08.531Z,95.30
2022-08-28T07:55:35.403Z,95.40
2022-08-28T07:58:02.393Z,95.20
2022-08-28T08:00:29.229Z,95.00
2022-08-28T08:02:56.055Z,95.40
2022-08-28T08:05:23.006Z,95.10
2022-08-28T08:07:49.864Z,94.90
2022-08-28T08:10:20.714Z,94.70
2022-08-28T08:12:47.715Z,94.60
2022-08-28T08:15:14.744Z,94.80
2022-08-28T08:17:42.909Z,94.90
2022-08-28T08:20:10.270Z,94.80
2022-08-28T08:22:37.797Z,94.80
2022-08-28T08:25:05.674Z,95.00
2022-08-28T08:27:33.637Z,95.00
2022-08-28T08:30:00.504Z,94.40
2022-08-28T08:32:27.802Z,94.20
2022-08-28T08:34:56.105Z,94.60
2022-08-28T08:37:23.050Z,94.00
2022-08-28T08:39:51.020Z,94.40
2022-08-28T08:42:31.684Z,94.10
2022-08-28T08:45:05.619Z,94.20
2022-08-28T08:47:51.496Z,93.90
2022-08-28T08:50:20.607Z,93.80
2022-08-28T08:53:05.685Z,93.90
2022-08-28T08:55:35.857Z,93.70
2022-08-28T08:58:31.775Z,93.70
2022-08-28T09:01:27.393Z,93.40
2022-08-28T09:04:21.587Z,93.30
2022-08-28T09:07:27.736Z,93.70
2022-08-28T09:09:56.809Z,93.60
2022-08-28T09:12:26.188Z,93.50
2022-08-28T09:14:58.540Z,93.00
2022-08-28T09:17:31.514Z,93.30
2022-08-28T09:19:58.552Z,92.90
2022-08-28T09:22:25.401Z,93.40
2022-08-28T09:24:52.327Z,92.90
2022-08-28T09:27:26.572Z,92.60
2022-08-28T09:30:07.877Z,92.70
2022-08-28T09:32:43.353Z,92.90
2022-08-28T09:35:24.596Z,92.50
2022-08-28T09:37:51.637Z,92.40
2022-08-28T09:40:48.252Z,92.50
2022-08-28T09:43:28.078Z,92.90
2022-08-28T09:46:00.196Z,92.70
2022-08-28T09:48:43.402Z,92.50
2022-08-28T09:51:22.161Z,92.60
2022-08-28T09:53:52.082Z,92.40
2022-08-28T09:56:30.256Z,92.60
2022-08-28T09:59:01.788Z,92.10
2022-08-28T10:01:46.610Z,92.70
2022-08-28T10:04:35.527Z,92.60
2022-08-28T10:07:14.524Z,92.40
2022-08-28T10:10:13.972Z,92.30
2022-08-28T10:13:09.888Z,92.20
2022-08-28T10:15:57.123Z,92.40
2022-08-28T10:18:32.100Z,92.00
2022-08-28T10:21:15.652Z,92.20
2022-08-28T10:24:00.806Z,91.90
2022-08-28T10:26:33.906Z,92.00
2022-08-28T10:29:24.597Z,92.30
2022-08-28T10:32:12.913Z,92.80
2022-08-28T10:34:51.457Z,92.30
2022-08-28T10:37:27.563Z,91.80
2022-08-28T10:39:59.957Z,91.40
2022-08-28T10:42:35.776Z,91.30
2022-08-28T10:45:14.215Z,91.30
2022-08-28T10:47:45.839Z,91.40
2022-08-28T10:50:22.793Z,91.00
2022-08-28T10:53:02.845Z,90.90
2022-08-28T10:56:10.101Z,91.10
2022-08-28T10:58:40.752Z,91.30
2022-08-28T11:01:14.431Z,91.40
2022-08-28T11:03:46.681Z,91.30
2022-08-28T11:06:40.985Z,91.60
2022-08-28T11:09:27.646Z,91.20
2022-08-28T11:12:07.624Z,91.30
2022-08-28T11:14:48.003Z,91.50
2022-08-28T11:17:25.415Z,92.30
2022-08-28T11:20:11.119Z,90.90
2022-08-28T11:22:53.138Z,90.80
2022-08-28T11:25:32.784Z,90.80
2022-08-28T11:28:12.233Z,90.40
2022-08-28T11:30:39.154Z,90.90
2022-08-28T11:33:09.635Z,90.90
2022-08-28T11:35:44.617Z,90.70
2022-08-28T11:38:12.119Z,90.50
2022-08-28T11:40:40.797Z,90.30
2022-08-28T11:43:16.701Z,90.80
2022-08-28T11:45:45.692Z,91.40
2022-08-28T11:48:25.934Z,91.20
2022-08-28T11:50:55.015Z,91.80
2022-08-28T11:53:46.203Z,91.70
2022-08-28T11:57:06.232Z,91.70
2022-08-28T12:00:00.287Z,90.50
2022-08-28T12:02:41.644Z,90.40
2022-08-28T12:05:17.874Z,90.40
2022-08-28T12:07:51.136Z,90.70
2022-08-28T12:10:20.981Z,90.60
2022-08-28T12:12:47.865Z,90.40
2022-08-28T12:15:29.898Z,90.80
2022-08-28T12:18:02.772Z,91.10
2022-08-28T12:20:38.860Z,91.00
2022-08-28T12:23:23.716Z,91.00
2022-08-28T12:25:59.210Z,91.00
2022-08-28T12:28:39.180Z,91.10
2022-08-28T12:31:06.047Z,90.90
2022-08-28T12:33:36.810Z,91.10
2022-08-28T12:36:06.329Z,90.80
2022-08-28T12:38:34.556Z,91.40
2022-08-28T12:41:02.849Z,90.50
2022-08-28T12:43:41.752Z,91.40
2022-08-28T12:46:20.812Z,91.20
2022-08-28T12:48:52.068Z,91.70
2022-08-28T12:51:23.490Z,90.30
2022-08-28T12:54:04.845Z,90.20
2022-08-28T12:56:38.982Z,90.40
2022-08-28T13:00:02.805Z,90.20
2022-08-28T13:02:35.775Z,90.20
2022-08-28T13:05:06.866Z,91.10
2022-08-28T13:07:36.126Z,90.90
2022-08-28T13:10:26.963Z,90.80
2022-08-28T13:13:21.379Z,90.40
2022-08-28T13:15:58.036Z,90.40
2022-08-28T13:18:56.476Z,90.90
2022-08-28T13:21:32.943Z,90.90
2022-08-28T13:24:22.050Z,91.10
2022-08-28T13:27:12.143Z,90.40
2022-08-28T13:29:58.102Z,90.60
2022-08-28T13:32:30.564Z,90.40
2022-08-28T13:35:13.682Z,90.40
2022-08-28T13:37:53.688Z,90.10
2022-08-28T13:40:55.966Z,90.40
2022-08-28T13:43:11.690Z,90.20
2022-08-28T13:45:43.207Z,90.00
2022-08-28T13:48:16.933Z,90.60
2022-08-28T13:50:47.373Z,90.80
2022-08-28T13:53:16.850Z,91.30
2022-08-28T13:55:44.142Z,90.50
2022-08-28T13:58:10.987Z,90.20
2022-08-28T14:00:42.608Z,89.20
2022-08-28T14:03:28.318Z,89.50
2022-08-28T14:05:55.098Z,89.80
2022-08-28T14:08:22.358Z,90.00
2022-08-28T14:10:49.321Z,90.20
2022-08-28T14:13:16.749Z,90.20
2022-08-28T14:15:43.774Z,90.00
2022-08-28T14:18:10.602Z,90.00
2022-08-28T14:20:38.729Z,90.40
2022-08-28T14:23:05.731Z,91.00
2022-08-28T14:25:35.900Z,91.20
2022-08-28T14:28:05.966Z,91.10
2022-08-28T14:30:32.854Z,89.70
2022-08-28T14:32:59.839Z,89.20
2022-08-28T14:35:26.758Z,89.10
2022-08-28T14:37:53.574Z,89.10
2022-08-28T14:40:20.725Z,88.70
2022-08-28T14:42:47.737Z,89.60
2022-08-28T14:45:14.659Z,90.10
2022-08-28T14:47:41.497Z,90.10
2022-08-28T14:50:08.883Z,89.40
2022-08-28T14:52:35.909Z,88.90
2022-08-28T14:55:02.921Z,89.70
2022-08-28T14:57:29.932Z,90.30
2022-08-28T14:59:56.788Z,90.90
2022-08-28T15:02:23.657Z,90.10
2022-08-28T15:04:50.585Z,90.40
2022-08-28T15:07:17.507Z,90.10
2022-08-28T15:09:44.369Z,90.60
2022-08-28T15:12:12.533Z,90.00
2022-08-28T15:14:39.516Z,89.50
2022-08-28T15:17:08.095Z,90.20
2022-08-28T15:19:35.076Z,89.90
2022-08-28T15:22:04.261Z,90.60
2022-08-28T15:24:34.288Z,90.80
2022-08-28T15:27:01.997Z,89.20
2022-08-28T15:29:30.056Z,88.70
2022-08-28T15:31:57.773Z,87.50
2022-08-28T15:34:27.019Z,87.60
2022-08-28T15:36:55.981Z,87.90
2022-08-28T15:39:46.883Z,87.90
2022-08-28T15:42:14.263Z,88.20
2022-08-28T15:44:41.162Z,87.80
2022-08-28T15:47:09.207Z,88.40
2022-08-28T15:49:44.577Z,88.20
2022-08-28T15:52:15.871Z,88.90
2022-08-28T15:54:43.114Z,88.50
2022-08-28T15:57:10.008Z,88.20
2022-08-28T15:59:47.877Z,89.00
2022-08-28T16:02:18.713Z,88.50
2022-08-28T16:04:45.683Z,88.10
2022-08-28T16:07:12.785Z,88.10
2022-08-28T16:09:39.701Z,88.60
2022-08-28T16:12:06.883Z,87.30
2022-08-28T16:14:34.087Z,87.70
2022-08-28T16:17:05.994Z,88.80
2022-08-28T16:19:40.777Z,88.30
2022-08-28T16:22:09.212Z,87.70
2022-08-28T16:24:36.288Z,88.50
2022-08-28T16:27:03.232Z,88.30
2022-08-28T16:29:30.115Z,88.20
2022-08-28T16:31:57.060Z,88.00
2022-08-28T16:34:30.761Z,87.40
2022-08-28T16:36:58.788Z,87.60
2022-08-28T16:39:25.711Z,87.70
2022-08-28T16:41:52.549Z,87.70
2022-08-28T16:44:21.021Z,89.00
2022-08-28T16:46:48.243Z,88.20
2022-08-28T16:49:15.630Z,87.30
2022-08-28T16:51:42.500Z,87.20
2022-08-28T16:54:09.514Z,86.60
2022-08-28T16:56:36.619Z,86.20
2022-08-28T16:59:04.150Z,87.50
2022-08-28T17:01:37.922Z,88.80
2022-08-28T17:04:07.948Z,87.90
2022-08-28T17:06:35.000Z,87.40
2022-08-28T17:09:02.004Z,86.60
2022-08-28T17:11:29.083Z,86.80
2022-08-28T17:13:56.444Z,86.80
2022-08-28T17:16:25.625Z,87.50
2022-08-28T17:18:53.046Z,87.70
2022-08-28T17:21:40.133Z,87.70
2022-08-28T17:24:08.524Z,90.00
2022-08-28T17:26:35.396Z,89.10
2022-08-28T17:29:02.988Z,90.10
2022-08-28T17:31:30.171Z,88.10
2022-08-28T17:33:57.400Z,88.30
2022-08-28T17:36:33.382Z,89.10
2022-08-28T17:39:03.159Z,88.00
2022-08-28T17:41:30.057Z,87.50
2022-08-28T17:43:56.976Z,89.10
2022-08-28T17:46:23.869Z,87.80
2022-08-28T17:48:55.475Z,87.80
2022-08-28T17:51:42.891Z,87.70
2022-08-28T17:54:16.856Z,87.60
2022-08-28T17:56:45.001Z,88.00
2022-08-28T17:59:12.050Z,86.50
2022-08-28T18:01:40.065Z,87.60
2022-08-28T18:04:07.115Z,86.60
2022-08-28T18:06:34.399Z,86.50
2022-08-28T18:09:01.664Z,87.50
2022-08-28T18:11:28.861Z,87.70
2022-08-28T18:13:55.735Z,86.60
2022-08-28T18:16:25.402Z,88.20
2022-08-28T18:18:54.731Z,87.40
2022-08-28T18:21:21.621Z,88.10
2022-08-28T18:23:48.474Z,88.40
2022-08-28T18:26:15.392Z,86.50
2022-08-28T18:28:42.247Z,87.70
2022-08-28T18:31:09.539Z,87.90
2022-08-28T18:33:37.288Z,87.00
2022-08-28T18:36:07.890Z,88.40
2022-08-28T18:38:35.640Z,87.80
2022-08-28T18:41:04.618Z,86.80
2022-08-28T18:43:32.263Z,89.00
2022-08-28T18:46:01.348Z,89.70
2022-08-28T18:48:28.703Z,86.30
2022-08-28T18:50:55.578Z,87.50
2022-08-28T18:53:23.431Z,85.30
2022-08-28T18:55:52.823Z,85.50
2022-08-28T18:58:21.947Z,85.80
2022-08-28T19:00:49.590Z,85.30
2022-08-28T19:03:16.498Z,85.30
2022-08-28T19:05:43.372Z,85.50
2022-08-28T19:08:10.438Z,85.20
2022-08-28T19:10:37.574Z,85.10
2022-08-28T19:13:05.957Z,86.60
2022-08-28T19:15:33.938Z,85.70
2022-08-28T19:18:01.514Z,85.90
2022-08-28T19:20:29.347Z,85.80
2022-08-28T19:22:57.731Z,85.70
2022-08-28T19:25:28.767Z,85.10
2022-08-28T19:27:59.116Z,85.10
2022-08-28T19:30:28.404Z,85.10
2022-08-28T19:32:55.739Z,85.40
2022-08-28T19:35:24.557Z,85.30
2022-08-28T19:37:55.264Z,85.30
2022-08-28T19:40:23.047Z,85.20
2022-08-28T19:42:50.377Z,85.30
2022-08-28T19:45:18.389Z,85.80
2022-08-28T19:47:45.799Z,85.40
2022-08-28T19:50:14.611Z,84.90
2022-08-28T19:52:43.515Z,84.70
2022-08-28T19:55:19.327Z,85.00
2022-08-28T19:57:49.466Z,84.80
2022-08-28T20:00:19.180Z,84.30
2022-08-28T20:02:48.203Z,85.00
2022-08-28T20:05:15.456Z,84.50
2022-08-28T20:07:42.527Z,84.30
2022-08-28T20:10:10.272Z,84.90
2022-08-28T20:12:38.628Z,83.80
2022-08-28T20:15:09.693Z,83.70
2022-08-28T20:17:43.871Z,83.60
2022-08-28T20:20:13.204Z,83.40
2022-08-28T20:22:40.076Z,84.80
2022-08-28T20:25:07.961Z,83.70
2022-08-28T20:27:34.888Z,83.20
2022-08-28T20:30:10.409Z,83.10
2022-08-28T20:32:40.170Z,83.20
2022-08-28T20:35:10.038Z,82.60
2022-08-28T20:37:44.835Z,83.50
2022-08-28T20:40:16.010Z,82.40
2022-08-28T20:42:43.289Z,82.20
2022-08-28T20:45:11.080Z,82.40
2022-08-28T20:47:37.966Z,82.00
2022-08-28T20:50:05.222Z,81.80
2022-08-28T20:52:32.073Z,81.40
2022-08-28T20:54:59.148Z,81.20
2022-08-28T20:57:26.541Z,83.60
2022-08-28T20:59:54.220Z,86.60
2022-08-28T21:02:25.099Z,81.40
2022-08-28T21:04:53.154Z,80.80
2022-08-28T21:07:22.626Z,80.90
2022-08-28T21:10:05.396Z,82.60
2022-08-28T21:12:35.541Z,81.70
2022-08-28T21:15:03.028Z,81.40
2022-08-28T21:17:30.690Z,81.20
2022-08-28T21:20:11.370Z,80.60
2022-08-28T21:22:38.759Z,82.00
2022-08-28T21:25:07.539Z,80.40
2022-08-28T21:27:35.018Z,81.90
2022-08-28T21:30:02.383Z,81.20
2022-08-28T21:32:30.181Z,81.00
2022-08-28T21:34:57.469Z,81.20
2022-08-28T21:37:24.642Z,80.50
2022-08-28T21:39:52.208Z,81.10
2022-08-28T21:42:20.923Z,80.20
2022-08-28T21:44:51.477Z,80.30
2022-08-28T21:47:23.259Z,80.50
2022-08-28T21:49:56.228Z,80.50
2022-08-28T21:52:28.991Z,80.20
2022-08-28T21:55:01.653Z,80.20
2022-08-28T21:57:29.499Z,80.40
2022-08-28T21:59:56.966Z,80.30
2022-08-28T22:02:24.494Z,80.20
2022-08-28T22:04:52.437Z,80.20
2022-08-28T22:07:20.023Z,80.60
2022-08-28T22:09:46.932Z,80.20
2022-08-28T22:12:13.816Z,82.40
2022-08-28T22:14:40.686Z,80.20
2022-08-28T22:17:11.881Z,80.30
2022-08-28T22:19:39.693Z,81.30
2022-08-28T22:22:25.296Z,80.70
2022-08-28T22:24:52.257Z,81.20
2022-08-28T22:27:19.452Z,80.80
2022-08-28T22:29:46.337Z,80.60
2022-08-28T22:32:13.207Z,82.00
2022-08-28T22:34:45.389Z,80.60
2022-08-28T22:37:13.460Z,80.60
2022-08-28T22:39:41.516Z,80.50
2022-08-28T22:42:09.918Z,80.60
2022-08-28T22:44:37.745Z,81.30
2022-08-28T22:47:05.396Z,80.40
2022-08-28T22:49:32.255Z,81.70
2022-08-28T22:51:59.101Z,81.20
2022-08-28T22:54:27.647Z,81.60
2022-08-28T22:56:54.552Z,81.20
2022-08-28T22:59:22.184Z,81.40
2022-08-28T23:01:49.109Z,82.20
2022-08-28T23:04:16.272Z,81.70
2022-08-28T23:06:43.227Z,82.60
2022-08-28T23:09:10.186Z,81.50
2022-08-28T23:11:37.761Z,81.40
2022-08-28T23:14:05.901Z,81.50
2022-08-28T23:16:35.344Z,81.70
2022-08-28T23:19:13.286Z,81.90
2022-08-28T23:21:44.238Z,81.70
2022-08-28T23:24:13.161Z,83.00
2022-08-28T23:26:40.646Z,81.60
2022-08-28T23:29:07.594Z,82.00
2022-08-28T23:31:34.743Z,81.90
2022-08-28T23:34:01.814Z,81.60
2022-08-28T23:36:28.775Z,81.50
2022-08-28T23:38:55.780Z,82.30
2022-08-28T23:41:22.729Z,81.70
2022-08-28T23:43:49.664Z,81.80
2022-08-28T23:46:17.965Z,82.20
2022-08-28T23:48:45.685Z,82.30
2022-08-28T23:51:16.854Z,82.00
2022-08-28T23:53:44.657Z,81.80
2022-08-28T23:56:12.786Z,82.10
2022-08-28T23:58:40.097Z,81.80
